Time;durP1;ratioP1;P1;durP2;ratioP2;P2;SDS_P1;SDS_P2;PMS_P1;PMS_P2;Temp;Humidity;BMP_temperature;BMP_pressure;BME280_temperature;BME280_humidity;BME280_pressure;Samples;Min_cycle;Max_cycle;Signal;HPM_P1;HPM_P2
2022/05/13 00:00:09;;;;;;;5.30;2.65;;;9.80;99.90;;;;;;4956472;29;20087;-82
2022/05/13 00:02:35;;;;;;;6.82;2.45;;;9.60;99.90;;;;;;4937278;29;20099;-82
2022/05/13 00:05:01;;;;;;;6.68;2.25;;;9.60;99.90;;;;;;4937527;29;20063;-81
2022/05/13 00:07:27;;;;;;;7.97;2.63;;;9.60;99.90;;;;;;4936411;29;20047;-81
2022/05/13 00:10:00;;;;;;;9.10;2.50;;;9.70;99.90;;;;;;4939620;29;20045;-81
2022/05/13 00:12:32;;;;;;;5.60;2.10;;;9.70;99.90;;;;;;4939261;29;20054;-81
2022/05/13 00:14:58;;;;;;;10.00;2.63;;;9.80;99.90;;;;;;4939305;29;20051;-81
2022/05/13 00:17:25;;;;;;;8.27;2.65;;;9.80;99.90;;;;;;4954768;29;20123;-81
2022/05/13 00:19:51;;;;;;;5.47;2.05;;;9.80;99.90;;;;;;4956004;29;20106;-82
2022/05/13 00:22:17;;;;;;;4.60;2.17;;;9.80;99.90;;;;;;4956152;29;20042;-81
2022/05/13 00:24:44;;;;;;;6.78;2.25;;;9.90;99.90;;;;;;4938781;29;20066;-81
2022/05/13 00:27:10;;;;;;;5.93;1.92;;;10.00;99.90;;;;;;4956173;29;20508;-81
2022/05/13 00:29:36;;;;;;;9.55;2.20;;;10.00;99.90;;;;;;4938693;29;20082;-81
2022/05/13 00:32:02;;;;;;;9.27;2.20;;;10.10;99.90;;;;;;4938907;29;20051;-81
2022/05/13 00:34:28;;;;;;;9.65;2.42;;;10.20;99.90;;;;;;4956083;29;20096;-81
2022/05/13 00:36:54;;;;;;;8.32;1.95;;;10.30;99.90;;;;;;4938962;29;20488;-81
2022/05/13 00:39:19;;;;;;;8.23;2.13;;;10.30;99.90;;;;;;4938958;29;20050;-81
2022/05/13 00:41:46;;;;;;;3.80;1.52;;;10.30;99.90;;;;;;4938721;29;20473;-81
2022/05/13 00:44:12;;;;;;;4.75;1.58;;;10.30;99.90;;;;;;4955842;29;20142;-81
2022/05/13 00:46:38;;;;;;;3.72;1.65;;;10.60;99.90;;;;;;4955538;29;20528;-87
2022/05/13 00:49:09;;;;;;;7.85;1.63;;;10.40;99.90;;;;;;4938745;29;20055;-82
2022/05/13 00:51:41;;;;;;;8.70;1.95;;;10.50;99.90;;;;;;4938793;29;20165;-81
2022/05/13 00:54:11;;;;;;;5.80;1.70;;;10.50;99.90;;;;;;4955489;29;20058;-81
2022/05/13 00:56:40;;;;;;;6.47;1.70;;;10.60;99.90;;;;;;4938553;29;20503;-82
2022/05/13 00:59:08;;;;;;;7.43;1.80;;;10.60;99.90;;;;;;4922761;29;20222;-81
2022/05/13 01:01:33;;;;;;;7.38;1.92;;;10.70;99.90;;;;;;4922221;29;20103;-81
2022/05/13 01:04:09;;;;;;;6.15;2.17;;;10.70;99.90;;;;;;4938393;28;20508;-82
2022/05/13 01:06:36;;;;;;;8.85;1.65;;;10.70;99.90;;;;;;4938539;29;20393;-82
2022/05/13 01:09:02;;;;;;;5.03;2.00;;;10.80;99.90;;;;;;4938565;29;20125;-82
2022/05/13 01:11:32;;;;;;;7.78;2.10;;;10.80;99.90;;;;;;4955429;29;20413;-81
2022/05/13 01:14:08;;;;;;;9.25;2.13;;;10.80;99.90;;;;;;4937741;29;20055;-82
2022/05/13 01:18:05;;;;;;;7.45;2.03;;;10.80;99.90;;;;;;4935353;29;20165;-82
2022/05/13 01:19:19;;;;;;;10.70;1.70;;;10.80;99.90;;;;;;4937726;29;20047;-82
2022/05/13 01:21:49;;;;;;;6.32;1.63;;;10.80;99.90;;;;;;4955195;29;20074;-81
2022/05/13 01:24:16;;;;;;;4.40;1.70;;;10.80;99.90;;;;;;4955122;29;20054;-82
2022/05/13 01:26:42;;;;;;;7.57;1.80;;;10.90;99.90;;;;;;4921823;29;20398;-82
2022/05/13 01:29:08;;;;;;;6.50;1.80;;;10.90;99.90;;;;;;4938079;29;20135;-82
2022/05/13 01:31:36;;;;;;;6.72;2.00;;;10.90;99.90;;;;;;4937814;28;20043;-82
2022/05/13 01:34:06;;;;;;;5.05;1.70;;;10.80;99.90;;;;;;4937797;29;20059;-81
2022/05/13 01:36:32;;;;;;;9.55;2.33;;;11.00;99.90;;;;;;4939147;29;20141;-82
2022/05/13 01:38:58;;;;;;;7.22;1.98;;;10.80;99.90;;;;;;4938019;29;20051;-81
2022/05/13 01:41:25;;;;;;;5.60;2.08;;;10.80;99.90;;;;;;4952283;28;20049;-86
2022/05/13 01:43:52;;;;;;;5.57;1.60;;;10.80;99.90;;;;;;4974285;28;20058;-81
2022/05/13 01:46:20;;;;;;;7.22;2.00;;;10.80;99.90;;;;;;4969974;28;20131;-81
2022/05/13 01:48:46;;;;;;;5.65;1.80;;;10.70;99.90;;;;;;4954817;29;20057;-81
2022/05/13 01:51:12;;;;;;;5.82;1.70;;;10.70;99.90;;;;;;4963205;28;20047;-81
2022/05/13 01:53:38;;;;;;;8.88;1.90;;;10.80;99.90;;;;;;4973891;28;20047;-81
2022/05/13 01:56:05;;;;;;;8.55;2.05;;;10.70;99.90;;;;;;4955306;28;20114;-81
2022/05/13 01:58:30;;;;;;;8.38;1.90;;;10.70;99.90;;;;;;4974024;28;20046;-81
2022/05/13 02:00:58;;;;;;;8.93;2.10;;;10.70;99.90;;;;;;4956895;28;20052;-81
2022/05/13 02:03:44;;;;;;;8.25;2.13;;;10.70;99.90;;;;;;4935226;29;20417;-82
2022/05/13 02:06:16;;;;;;;12.70;2.00;;;10.70;99.90;;;;;;4927564;28;20047;-82
2022/05/13 02:08:42;;;;;;;8.95;2.22;;;10.70;99.90;;;;;;4956599;28;20042;-82
2022/05/13 02:11:08;;;;;;;6.43;2.15;;;10.60;99.90;;;;;;4954674;28;20049;-82
2022/05/13 02:13:34;;;;;;;8.38;2.42;;;10.70;99.90;;;;;;4921736;29;20471;-81
2022/05/13 02:16:00;;;;;;;4.63;1.70;;;10.60;99.90;;;;;;4956571;28;20047;-81
2022/05/13 02:18:26;;;;;;;6.88;1.80;;;10.60;99.90;;;;;;4956589;28;20082;-82
2022/05/13 02:20:52;;;;;;;7.35;2.20;;;10.60;99.90;;;;;;4940161;28;20146;-81
2022/05/13 02:23:21;;;;;;;8.63;1.95;;;10.60;99.90;;;;;;4971628;28;20129;-82
2022/05/13 02:25:48;;;;;;;6.40;2.08;;;10.50;99.90;;;;;;4970835;28;20051;-81
2022/05/13 02:28:14;;;;;;;9.07;2.40;;;10.60;99.90;;;;;;4940891;29;20047;-82
2022/05/13 02:30:40;;;;;;;7.38;1.98;;;10.60;99.90;;;;;;4936697;29;20043;-81
2022/05/13 02:33:06;;;;;;;9.20;2.65;;;10.60;99.90;;;;;;4954386;29;20182;-81
2022/05/13 02:35:33;;;;;;;8.20;2.10;;;10.60;99.90;;;;;;4941846;28;20540;-85
2022/05/13 02:37:58;;;;;;;6.95;2.03;;;10.60;99.90;;;;;;4954440;28;20039;-83
2022/05/13 02:41:11;;;;;;;7.00;2.25;;;10.50;99.90;;;;;;4973349;28;20113;-83
2022/05/13 02:43:12;;;;;;;10.95;2.80;;;10.60;99.90;;;;;;4948888;29;20193;-81
2022/05/13 02:45:38;;;;;;;8.90;2.50;;;10.60;99.90;;;;;;4937180;29;20566;-82
2022/05/13 02:48:04;;;;;;;10.70;2.53;;;10.50;99.90;;;;;;4937162;29;20401;-82
2022/05/13 02:50:30;;;;;;;8.23;2.20;;;10.50;99.90;;;;;;4937098;29;20047;-82
2022/05/13 02:52:57;;;;;;;7.55;2.28;;;10.50;99.90;;;;;;4938290;28;20501;-81
2022/05/13 02:55:22;;;;;;;9.63;2.35;;;10.50;99.90;;;;;;4937240;29;20043;-82
2022/05/13 02:57:48;;;;;;;8.85;2.30;;;10.40;99.90;;;;;;4937108;29;20051;-81
2022/05/13 03:00:14;;;;;;;9.73;2.55;;;10.60;99.90;;;;;;4954737;28;20051;-81
2022/05/13 03:02:43;;;;;;;9.75;2.58;;;10.30;99.90;;;;;;4954327;28;20081;-83
2022/05/13 03:05:09;;;;;;;9.63;2.30;;;10.30;99.90;;;;;;4954471;28;20059;-83
2022/05/13 03:07:35;;;;;;;6.88;2.50;;;10.30;99.90;;;;;;4955390;28;20770;-83
2022/05/13 03:10:00;;;;;;;10.35;2.63;;;10.30;99.90;;;;;;4954354;28;20134;-81
2022/05/13 03:12:26;;;;;;;10.25;2.60;;;10.30;99.90;;;;;;4973248;28;20428;-82
2022/05/13 03:14:52;;;;;;;8.30;2.78;;;10.40;99.90;;;;;;4963050;28;20465;-81
2022/05/13 03:17:17;;;;;;;6.97;2.30;;;10.30;99.90;;;;;;4936891;29;20055;-81
2022/05/13 03:19:43;;;;;;;9.02;3.00;;;10.40;99.90;;;;;;4970592;28;20043;-81
2022/05/13 03:22:09;;;;;;;7.10;2.25;;;10.40;99.90;;;;;;4953933;28;20046;-83
2022/05/13 03:24:35;;;;;;;7.10;2.38;;;10.40;99.90;;;;;;4954726;28;20043;-82
2022/05/13 03:27:01;;;;;;;9.82;2.17;;;10.40;99.90;;;;;;4956077;28;20412;-81
2022/05/13 03:29:27;;;;;;;7.35;2.55;;;10.40;99.90;;;;;;4954704;28;20447;-82
2022/05/13 03:31:54;;;;;;;10.10;2.33;;;10.40;99.90;;;;;;4920792;29;20051;-82
2022/05/13 03:34:21;;;;;;;9.10;2.25;;;10.40;99.90;;;;;;4936420;29;20058;-82
2022/05/13 03:36:49;;;;;;;11.68;2.70;;;10.40;99.90;;;;;;4936220;29;20043;-83
2022/05/13 03:39:15;;;;;;;10.75;2.53;;;10.40;99.90;;;;;;4936852;29;20086;-82
2022/05/13 03:41:41;;;;;;;11.98;2.83;;;10.40;99.90;;;;;;4939325;29;20085;-82
2022/05/13 03:44:07;;;;;;;8.25;2.45;;;10.40;99.90;;;;;;4956930;28;20078;-82
2022/05/13 03:46:32;;;;;;;8.25;2.53;;;10.40;99.90;;;;;;4951660;28;20134;-81
2022/05/13 03:48:58;;;;;;;9.93;2.60;;;10.40;99.90;;;;;;4943251;28;20054;-81
2022/05/13 03:51:23;;;;;;;8.45;2.22;;;10.40;99.90;;;;;;4957170;28;20054;-83
2022/05/13 03:53:52;;;;;;;11.93;2.33;;;10.50;99.90;;;;;;4957712;28;20428;-81
2022/05/13 03:56:17;;;;;;;11.82;2.50;;;10.50;99.90;;;;;;4957553;28;20447;-82
2022/05/13 03:58:43;;;;;;;12.13;3.03;;;10.60;99.90;;;;;;4943262;28;20078;-82
2022/05/13 04:01:09;;;;;;;12.30;2.80;;;10.60;99.90;;;;;;4958849;28;20499;-82
2022/05/13 04:03:34;;;;;;;11.68;2.60;;;10.80;99.90;;;;;;4942587;28;20054;-83
2022/05/13 04:08:56;;;;;;;10.25;2.63;;;10.70;99.90;;;;;;4958600;28;20061;-83
2022/05/13 04:11:23;;;;;;;13.48;2.72;;;10.80;99.90;;;;;;4941062;28;20047;-82
2022/05/13 04:16:33;;;;;;;11.65;2.70;;;10.60;99.90;;;;;;4957482;28;20496;-83
2022/05/13 04:18:58;;;;;;;9.38;2.50;;;10.60;99.90;;;;;;4939101;28;20102;-83
2022/05/13 04:21:28;;;;;;;13.45;2.75;;;10.70;99.90;;;;;;4959970;28;20046;-83
2022/05/13 04:23:56;;;;;;;11.93;2.78;;;10.70;99.90;;;;;;4975715;28;20059;-82
2022/05/13 04:26:23;;;;;;;12.32;3.05;;;10.70;99.90;;;;;;4958233;28;20050;-82
2022/05/13 04:28:50;;;;;;;12.32;3.10;;;10.70;99.90;;;;;;4956280;28;20492;-82
2022/05/13 04:31:20;;;;;;;18.35;3.22;;;10.70;99.90;;;;;;4945174;29;20054;-82
2022/05/13 04:33:47;;;;;;;11.40;2.78;;;10.70;99.90;;;;;;4952413;28;20100;-82
2022/05/13 04:36:13;;;;;;;16.15;3.75;;;10.70;99.90;;;;;;4973854;28;20129;-82
2022/05/13 04:38:38;;;;;;;12.95;3.10;;;10.70;99.90;;;;;;4975716;28;20093;-81
2022/05/13 04:43:50;;;;;;;16.90;3.75;;;10.70;99.90;;;;;;4944418;29;20494;-81
2022/05/13 04:46:16;;;;;;;15.43;3.63;;;10.80;99.90;;;;;;4939029;29;20043;-81
2022/05/13 04:48:41;;;;;;;18.42;3.63;;;10.80;99.90;;;;;;4939354;29;20082;-82
2022/05/13 04:51:07;;;;;;;13.52;3.30;;;10.80;99.90;;;;;;4923778;29;20546;-81
2022/05/13 04:53:36;;;;;;;13.15;3.50;;;10.80;99.90;;;;;;4938089;29;20500;-81
2022/05/13 04:56:04;;;;;;;17.77;3.30;;;10.90;99.90;;;;;;4939294;29;20051;-81
2022/05/13 04:58:30;;;;;;;15.60;3.15;;;10.90;99.90;;;;;;4939051;29;20051;-81
2022/05/13 05:00:58;;;;;;;17.85;3.85;;;10.90;99.90;;;;;;4938997;29;20388;-82
2022/05/13 05:03:29;;;;;;;13.50;3.60;;;11.00;99.90;;;;;;4939123;29;20043;-81
2022/05/13 05:05:55;;;;;;;14.43;3.78;;;11.30;99.90;;;;;;4955848;29;20101;-82
2022/05/13 05:08:21;;;;;;;17.80;4.20;;;11.10;99.90;;;;;;4955964;29;20047;-82
2022/05/13 05:10:47;;;;;;;15.43;4.10;;;11.10;99.90;;;;;;4938977;29;20097;-82
2022/05/13 05:13:23;;;;;;;16.10;4.13;;;11.20;99.90;;;;;;4938834;29;20047;-82
2022/05/13 05:15:49;;;;;;;16.55;3.60;;;11.20;99.90;;;;;;4922757;29;20047;-82
2022/05/13 05:18:15;;;;;;;14.85;3.70;;;11.20;99.90;;;;;;4938802;29;20039;-82
2022/05/13 05:20:42;;;;;;;15.10;4.10;;;11.30;99.90;;;;;;4955743;29;20130;-82
2022/05/13 05:23:23;;;;;;;18.27;4.20;;;11.50;99.90;;;;;;4938641;29;20139;-82
2022/05/13 05:25:49;;;;;;;16.67;4.00;;;11.50;99.90;;;;;;4938544;29;20098;-82
2022/05/13 05:28:15;;;;;;;17.60;4.07;;;11.70;99.90;;;;;;4955104;29;20038;-82
2022/05/13 05:30:42;;;;;;;16.02;3.88;;;11.80;99.90;;;;;;4938632;29;20113;-83
2022/05/13 05:33:11;;;;;;;17.45;4.30;;;11.90;99.90;;;;;;4922863;29;20083;-82
2022/05/13 05:35:38;;;;;;;18.73;4.35;;;12.00;99.90;;;;;;4955394;29;20053;-81
2022/05/13 05:38:04;;;;;;;16.45;4.63;;;12.10;99.90;;;;;;4955369;29;20054;-82
2022/05/13 05:40:30;;;;;;;18.80;4.03;;;12.10;99.90;;;;;;4938206;29;20062;-84
2022/05/13 05:42:56;;;;;;;16.20;4.53;;;12.20;99.90;;;;;;4938199;29;20130;-82
2022/05/13 05:45:23;;;;;;;16.13;4.25;;;12.30;99.90;;;;;;4938359;29;20082;-82
2022/05/13 05:47:50;;;;;;;17.45;4.25;;;12.30;99.90;;;;;;4937942;29;20045;-82
2022/05/13 05:50:20;;;;;;;20.65;4.18;;;12.30;99.90;;;;;;4937883;29;20381;-82
2022/05/13 05:52:46;;;;;;;16.85;4.45;;;12.30;99.90;;;;;;4938171;29;20449;-81
2022/05/13 05:58:04;;;;;;;15.13;4.05;;;12.70;99.90;;;;;;4938086;29;20055;-82
2022/05/13 06:00:32;;;;;;;16.83;3.95;;;13.00;99.90;;;;;;4937764;29;20043;-84
2022/05/13 06:02:57;;;;;;;11.35;3.13;;;13.30;99.90;;;;;;4937859;29;20504;-82
2022/05/13 06:05:24;;;;;;;12.80;3.15;;;13.50;99.90;;;;;;4921867;29;20051;-82
2022/05/13 06:07:51;;;;;;;13.48;3.35;;;13.60;99.90;;;;;;4937484;29;20051;-82
2022/05/13 06:10:18;;;;;;;13.98;3.35;;;13.70;99.90;;;;;;4937604;29;20039;-81
2022/05/13 06:12:44;;;;;;;14.00;3.40;;;13.70;99.90;;;;;;4937985;29;20047;-83
2022/05/13 06:15:11;;;;;;;16.55;3.03;;;13.70;99.90;;;;;;4937800;29;20150;-82
2022/05/13 06:17:43;;;;;;;17.52;3.47;;;13.70;99.90;;;;;;4954723;29;20102;-82
2022/05/13 06:20:09;;;;;;;15.25;3.00;;;13.80;99.90;;;;;;4937811;29;20139;-82
2022/05/13 06:22:35;;;;;;;17.00;3.33;;;13.70;99.90;;;;;;4937672;29;20044;-83
2022/05/13 06:25:02;;;;;;;10.88;2.92;;;13.80;99.90;;;;;;4937681;29;20117;-83
2022/05/13 06:27:28;;;;;;;11.20;2.70;;;14.00;99.90;;;;;;4954640;29;20050;-82
2022/05/13 06:29:53;;;;;;;15.15;3.33;;;14.20;99.90;;;;;;4921838;29;20039;-82
2022/05/13 06:32:19;;;;;;;12.25;2.30;;;14.40;99.90;;;;;;4937422;29;20361;-85
2022/05/13 06:34:45;;;;;;;11.77;3.10;;;14.50;99.90;;;;;;4954520;29;20078;-83
2022/05/13 06:37:10;;;;;;;13.13;2.53;;;14.50;99.90;;;;;;4921800;29;20047;-85
2022/05/13 06:39:36;;;;;;;11.90;2.97;;;14.60;99.90;;;;;;4921550;29;20560;-83
2022/05/13 06:42:01;;;;;;;11.52;2.92;;;14.50;99.90;;;;;;4937817;29;20485;-82
2022/05/13 06:44:27;;;;;;;15.05;2.97;;;14.50;99.90;;;;;;4954494;29;20039;-82
2022/05/13 06:46:53;;;;;;;10.02;2.88;;;14.40;99.90;;;;;;4937230;29;20072;-86
2022/05/13 06:49:18;;;;;;;11.38;2.70;;;14.40;99.90;;;;;;4954396;29;20488;-83
2022/05/13 06:51:44;;;;;;;10.50;2.80;;;14.40;99.90;;;;;;4937405;29;20134;-84
2022/05/13 06:54:11;;;;;;;10.88;3.08;;;14.40;99.90;;;;;;4937307;29;20048;-83
2022/05/13 06:56:41;;;;;;;8.60;2.88;;;14.40;99.90;;;;;;4954486;29;20043;-83
2022/05/13 06:59:08;;;;;;;10.75;2.55;;;14.30;99.90;;;;;;4937562;29;20067;-84
2022/05/13 07:01:35;;;;;;;8.77;2.28;;;14.30;99.90;;;;;;4937442;29;20051;-84
2022/05/13 07:04:01;;;;;;;11.13;2.30;;;14.30;99.90;;;;;;4937360;29;20059;-82
2022/05/13 07:06:26;;;;;;;6.45;1.88;;;14.30;99.90;;;;;;4937143;29;20101;-82
2022/05/13 07:08:52;;;;;;;6.72;1.60;;;14.60;99.90;;;;;;4937117;29;20059;-84
2022/05/13 07:11:18;;;;;;;12.82;2.28;;;14.90;99.90;;;;;;4937193;29;20040;-82
2022/05/13 07:13:44;;;;;;;6.97;1.88;;;15.10;99.90;;;;;;4937343;29;20043;-83
2022/05/13 07:16:11;;;;;;;9.55;2.10;;;15.10;99.90;;;;;;4955618;28;20050;-82
2022/05/13 07:18:38;;;;;;;7.95;1.80;;;15.00;99.90;;;;;;4940876;29;20493;-84
2022/05/13 07:21:05;;;;;;;10.80;2.20;;;15.10;99.90;;;;;;4925175;29;20086;-81
2022/05/13 07:23:30;;;;;;;10.00;2.20;;;15.20;99.90;;;;;;4924785;29;20063;-81
2022/05/13 07:25:57;;;;;;;16.45;2.15;;;15.20;99.90;;;;;;4956381;29;20106;-82
2022/05/13 07:28:24;;;;;;;8.85;2.08;;;15.80;99.90;;;;;;4957851;29;20043;-84
2022/05/13 07:30:49;;;;;;;6.90;1.90;;;16.50;99.90;;;;;;4940761;29;20039;-83
2022/05/13 07:33:15;;;;;;;7.10;1.70;;;17.00;99.90;;;;;;4940119;29;20055;-85
2022/05/13 07:35:41;;;;;;;5.18;1.40;;;17.60;99.90;;;;;;4940288;29;20078;-83
2022/05/13 07:38:07;;;;;;;6.82;1.88;;;18.00;99.90;;;;;;4940496;29;20106;-88
2022/05/13 07:43:18;;;;;;;7.15;1.48;;;19.30;98.80;;;;;;4940488;29;20118;-83
2022/05/13 07:45:43;;;;;;;4.22;1.38;;;19.90;94.70;;;;;;4924488;29;20081;-83
2022/05/13 07:48:09;;;;;;;6.13;1.67;;;20.20;90.70;;;;;;4940354;29;20041;-83
2022/05/13 07:50:35;;;;;;;5.13;1.17;;;20.10;89.70;;;;;;4940157;29;20051;-83
2022/05/13 07:53:01;;;;;;;4.70;1.33;;;19.40;92.40;;;;;;4940017;29;20039;-83
2022/05/13 07:55:27;;;;;;;5.30;1.40;;;18.90;92.40;;;;;;4940434;29;20417;-83
2022/05/13 07:57:53;;;;;;;6.38;1.23;;;19.20;93.30;;;;;;4940310;29;20185;-83
2022/05/13 08:00:29;;;;;;;7.03;1.33;;;19.90;86.80;;;;;;4957173;29;20125;-83
2022/05/13 08:03:02;;;;;;;6.55;1.02;;;20.70;75.50;;;;;;4939875;29;20047;-84
2022/05/13 08:05:36;;;;;;;8.65;1.25;;;20.60;71.90;;;;;;4939958;29;20054;-84
2022/05/13 08:08:07;;;;;;;4.53;1.30;;;20.60;74.20;;;;;;4940201;29;20091;-83
2022/05/13 08:10:33;;;;;;;5.25;1.20;;;21.20;71.30;;;;;;4940031;29;20054;-84
2022/05/13 08:12:59;;;;;;;4.38;1.30;;;21.10;68.30;;;;;;4939782;29;20523;-83
2022/05/13 08:15:26;;;;;;;4.93;1.42;;;20.50;71.20;;;;;;4956801;29;20078;-83
2022/05/13 08:17:52;;;;;;;8.38;1.25;;;20.50;70.00;;;;;;4939900;29;20086;-85
2022/05/13 08:20:19;;;;;;;6.10;1.15;;;20.30;70.20;;;;;;4939434;29;20512;-83
2022/05/13 08:22:45;;;;;;;2.47;1.00;;;20.10;71.80;;;;;;4939460;29;20047;-82
2022/05/13 08:25:11;;;;;;;5.50;1.40;;;19.60;75.50;;;;;;4939770;29;20547;-84
2022/05/13 08:27:37;;;;;;;5.55;1.30;;;19.10;77.30;;;;;;4938669;29;20393;-86
2022/05/13 08:30:04;;;;;;;10.07;1.23;;;18.70;82.40;;;;;;4939735;29;20039;-83
2022/05/13 08:32:31;;;;;;;9.13;1.40;;;18.80;80.10;;;;;;4939430;29;20058;-82
2022/05/13 08:34:57;;;;;;;9.63;1.40;;;18.70;84.00;;;;;;4939253;29;20122;-82
2022/05/13 08:37:22;;;;;;;6.03;1.30;;;18.90;80.20;;;;;;4939422;29;20449;-84
2022/05/13 08:39:48;;;;;;;4.15;0.95;;;19.00;81.10;;;;;;4956483;29;20051;-84
2022/05/13 08:42:41;;;;;;;6.10;1.52;;;19.40;79.00;;;;;;4939655;29;20061;-82
2022/05/13 08:45:10;;;;;;;6.88;1.30;;;19.40;75.10;;;;;;4938981;29;20078;-83
2022/05/13 08:47:57;;;;;;;6.60;1.40;;;18.80;81.70;;;;;;4956094;29;20175;-86
2022/05/13 08:50:25;;;;;;;2.95;1.05;;;18.20;86.50;;;;;;4938968;29;20047;-82
2022/05/13 08:53:28;;;;;;;3.17;1.00;;;17.80;92.20;;;;;;4923412;29;20058;-83
2022/05/13 08:56:05;;;;;;;9.40;1.40;;;17.70;91.10;;;;;;4923283;29;20054;-85
2022/05/13 08:58:42;;;;;;;5.60;1.02;;;17.90;91.10;;;;;;4939375;29;20392;-84
2022/05/13 09:01:18;;;;;;;3.70;1.20;;;18.50;87.60;;;;;;4956211;29;20058;-85
2022/05/13 09:03:53;;;;;;;4.57;1.25;;;19.30;80.70;;;;;;4938873;29;20119;-83
2022/05/13 09:06:39;;;;;;;5.68;1.23;;;20.00;75.70;;;;;;4938919;29;20455;-83
2022/05/13 09:09:08;;;;;;;6.22;1.20;;;19.90;71.10;;;;;;4923161;29;20126;-85
2022/05/13 09:11:46;;;;;;;4.60;1.42;;;19.30;79.20;;;;;;4954897;29;20148;-82
2022/05/13 09:14:35;;;;;;;5.85;1.20;;;18.70;82.20;;;;;;4938747;29;20086;-85
2022/05/13 09:17:12;;;;;;;4.57;1.55;;;18.30;88.10;;;;;;4899660;29;20059;-83
2022/05/13 09:19:52;;;;;;;6.07;1.52;;;18.50;86.70;;;;;;4915460;29;20454;-83
2022/05/13 09:22:18;;;;;;;5.20;1.33;;;18.70;83.20;;;;;;4899755;29;20530;-83
2022/05/13 09:24:46;;;;;;;5.68;1.40;;;18.60;83.90;;;;;;4899610;29;20059;-83
2022/05/13 09:27:13;;;;;;;6.80;1.63;;;18.40;88.50;;;;;;4915193;29;20605;-84
2022/05/13 09:29:43;;;;;;;5.15;1.67;;;18.70;89.90;;;;;;4915296;29;20090;-85
2022/05/13 09:32:26;;;;;;;5.45;1.08;;;18.80;85.30;;;;;;4915495;29;20044;-84
2022/05/13 09:35:12;;;;;;;4.28;1.30;;;18.30;83.30;;;;;;4899237;29;20134;-86
2022/05/13 09:37:41;;;;;;;9.23;1.75;;;17.90;91.30;;;;;;4915298;29;20477;-83
2022/05/13 09:40:24;;;;;;;9.23;1.20;;;17.70;94.50;;;;;;4914586;29;20104;-84
2022/05/13 09:42:57;;;;;;;6.47;1.48;;;17.50;95.90;;;;;;4915122;29;20051;-82
2022/05/13 09:45:25;;;;;;;9.93;1.73;;;17.40;97.20;;;;;;4899417;29;20044;-83
2022/05/13 09:48:06;;;;;;;6.70;1.50;;;17.40;97.10;;;;;;4899881;29;20401;-83
2022/05/13 09:50:42;;;;;;;8.80;1.40;;;17.40;97.20;;;;;;4916565;29;20051;-84
2022/05/13 09:53:32;;;;;;;5.22;1.20;;;17.60;97.50;;;;;;4906084;29;20063;-86
2022/05/13 09:56:02;;;;;;;10.70;1.35;;;17.90;94.50;;;;;;4939400;29;20051;-84
2022/05/13 09:58:29;;;;;;;7.57;1.38;;;18.30;91.70;;;;;;4939573;29;20046;-84
2022/05/13 10:01:03;;;;;;;6.15;1.30;;;18.40;90.40;;;;;;4939156;29;20043;-83
2022/05/13 10:03:36;;;;;;;4.95;1.17;;;18.40;88.50;;;;;;4939129;29;20143;-85
2022/05/13 10:06:11;;;;;;;7.38;1.33;;;18.70;85.30;;;;;;4938325;29;20086;-86
2022/05/13 10:13:57;;;;;;;6.78;1.25;;;18.80;84.90;;;;;;4938418;29;20083;-86
2022/05/13 10:14:37;;;;;;;6.70;1.40;;;20.70;69.90;;;;;;4938307;29;20043;-84
2022/05/13 10:17:08;;;;;;;6.95;1.58;;;21.60;66.20;;;;;;4954834;29;20039;-88
2022/05/13 10:19:43;;;;;;;5.07;1.30;;;22.00;61.20;;;;;;4938336;29;20046;-90
2022/05/13 10:22:21;;;;;;;3.97;1.20;;;21.70;63.20;;;;;;4937425;29;20496;-86
2022/05/13 10:25:03;;;;;;;6.50;1.25;;;21.80;63.90;;;;;;4938185;29;20488;-84
2022/05/13 10:27:59;;;;;;;5.22;1.38;;;22.50;59.50;;;;;;4937619;29;20515;-85
2022/05/13 10:31:00;;;;;;;8.63;1.30;;;22.90;55.60;;;;;;4937784;29;20047;-84
2022/05/13 10:33:38;;;;;;;6.93;1.15;;;22.90;56.00;;;;;;4921556;29;20052;-85
2022/05/13 10:36:47;;;;;;;7.82;1.35;;;22.70;57.20;;;;;;4939060;29;20384;-84
2022/05/13 10:39:19;;;;;;;6.70;1.42;;;21.90;58.40;;;;;;4938133;29;20055;-83
2022/05/13 10:42:00;;;;;;;4.78;1.50;;;20.90;64.60;;;;;;4937847;29;20047;-84
2022/05/13 10:44:55;;;;;;;5.57;1.30;;;20.80;67.10;;;;;;4954958;29;20130;-84
2022/05/13 10:47:24;;;;;;;5.90;1.45;;;20.80;65.00;;;;;;4955015;29;20039;-83
2022/05/13 10:49:50;;;;;;;10.15;1.30;;;20.40;67.00;;;;;;4922289;28;20054;-83
2022/05/13 10:52:21;;;;;;;9.63;1.48;;;20.50;68.30;;;;;;4958111;29;20389;-83
2022/05/13 10:54:55;;;;;;;5.05;1.50;;;20.90;68.00;;;;;;4941519;29;20055;-84
2022/05/13 10:57:23;;;;;;;6.57;1.30;;;22.00;62.60;;;;;;4941584;29;20051;-84
2022/05/13 11:00:15;;;;;;;4.93;1.23;;;23.20;58.50;;;;;;4941419;29;20048;-83
2022/05/13 11:03:12;;;;;;;13.23;1.80;;;23.50;54.10;;;;;;4941199;29;20050;-83
2022/05/13 11:06:11;;;;;;;7.47;1.45;;;23.40;52.90;;;;;;4941510;29;20497;-85
2022/05/13 11:09:06;;;;;;;3.65;1.38;;;22.70;54.00;;;;;;4941117;29;20524;-89
2022/05/13 11:11:43;;;;;;;4.88;1.42;;;22.00;58.20;;;;;;4940946;29;20503;-85
2022/05/13 11:14:12;;;;;;;3.22;1.13;;;22.70;60.50;;;;;;4941701;29;20446;-84
2022/05/13 11:17:14;;;;;;;4.50;1.17;;;23.70;55.70;;;;;;4941414;29;20043;-89
2022/05/13 11:20:00;;;;;;;6.72;1.80;;;24.60;52.90;;;;;;4941572;29;20039;-84
2022/05/13 11:22:48;;;;;;;5.03;1.50;;;24.80;50.10;;;;;;4941244;29;20043;-84
2022/05/13 11:25:56;;;;;;;6.03;1.73;;;23.80;51.10;;;;;;4940754;29;20129;-85
2022/05/13 11:28:43;;;;;;;6.20;1.92;;;22.70;54.10;;;;;;4940831;29;20412;-84
2022/05/13 11:31:18;;;;;;;4.72;1.90;;;21.70;60.50;;;;;;4941051;29;20058;-85
2022/05/13 11:34:02;;;;;;;7.68;2.00;;;22.00;58.70;;;;;;4940951;29;20428;-85
2022/05/13 11:36:36;;;;;;;9.50;1.85;;;21.80;57.80;;;;;;4941236;29;20041;-84
2022/05/13 11:39:21;;;;;;;7.03;1.73;;;21.40;59.00;;;;;;4924179;29;20481;-85
2022/05/13 11:41:52;;;;;;;5.68;1.67;;;20.90;61.70;;;;;;4940937;29;20051;-85
2022/05/13 11:44:22;;;;;;;5.75;1.48;;;20.30;64.60;;;;;;4957839;29;20041;-85
2022/05/13 11:47:10;;;;;;;5.85;1.60;;;19.80;66.30;;;;;;4940696;29;20051;-84
2022/05/13 11:49:37;;;;;;;6.88;1.38;;;19.30;70.00;;;;;;4924917;29;20054;-83
2022/05/13 11:52:12;;;;;;;8.10;1.63;;;19.00;73.40;;;;;;4939867;29;20058;-84
2022/05/13 11:54:41;;;;;;;6.93;1.83;;;18.80;75.10;;;;;;4924558;29;20051;-84
2022/05/13 11:57:27;;;;;;;5.93;1.58;;;18.70;74.30;;;;;;4957575;29;20156;-85
2022/05/13 12:00:15;;;;;;;7.60;1.60;;;18.70;76.80;;;;;;4940475;29;20050;-84
2022/05/13 12:02:55;;;;;;;5.65;1.90;;;18.90;75.20;;;;;;4956683;28;20047;-84
2022/05/13 12:05:20;;;;;;;6.00;1.50;;;19.20;73.60;;;;;;4940016;29;20069;-84
2022/05/13 12:07:51;;;;;;;5.22;1.83;;;19.20;74.00;;;;;;4940219;29;20051;-84
2022/05/13 12:10:18;;;;;;;;;;;19.30;72.90;;;;;;4957737;29;20102;-84
2022/05/13 12:13:03;;;;;;;5.53;1.60;;;19.40;72.10;;;;;;4940342;29;19920;-87
2022/05/13 12:15:38;;;;;;;7.40;1.90;;;19.50;70.20;;;;;;4924383;29;20129;-84
2022/05/13 12:18:51;;;;;;;6.15;1.73;;;19.50;69.70;;;;;;4940348;29;20082;-83
2022/05/13 12:21:28;;;;;;;9.05;1.55;;;19.60;68.40;;;;;;4923644;29;20078;-84
2022/05/13 12:24:19;;;;;;;8.15;1.73;;;20.20;71.80;;;;;;4956806;29;20142;-84
2022/05/13 12:27:03;;;;;;;4.88;1.50;;;20.80;65.00;;;;;;4939376;29;20047;-84
2022/05/13 12:29:35;;;;;;;5.63;1.38;;;21.10;65.30;;;;;;4939933;29;20079;-83
2022/05/13 12:32:01;;;;;;;5.72;1.50;;;21.60;60.90;;;;;;4940910;29;20043;-85
2022/05/13 12:37:58;;;;;;;2.83;1.05;;;21.50;58.90;;;;;;4958676;29;20057;-84
2022/05/13 12:40:24;;;;;;;6.78;1.10;;;21.20;60.50;;;;;;4924564;29;20125;-86
2022/05/13 12:42:50;;;;;;;5.75;1.27;;;21.70;58.90;;;;;;4923867;29;20213;-87
2022/05/13 12:45:18;;;;;;;5.53;1.20;;;22.60;55.90;;;;;;4939975;29;20109;-84
2022/05/13 12:48:17;;;;;;;4.95;1.23;;;23.30;52.10;;;;;;4923812;29;20035;-85
2022/05/13 12:51:13;;;;;;;4.63;1.45;;;23.80;49.00;;;;;;4939481;29;20047;-86
2022/05/13 12:53:57;;;;;;;6.45;1.50;;;24.30;49.20;;;;;;4939124;29;20050;-84
2022/05/13 12:56:25;;;;;;;6.60;1.73;;;24.50;48.20;;;;;;4939627;29;20043;-85
2022/05/13 12:59:26;;;;;;;5.32;1.30;;;24.80;47.50;;;;;;4923703;29;20043;-85
2022/05/13 13:02:09;;;;;;;7.53;1.10;;;25.00;46.80;;;;;;4916307;29;20059;-85
2022/05/13 13:04:44;;;;;;;6.32;1.27;;;24.50;46.40;;;;;;4915938;29;20600;-84
2022/05/13 13:07:11;;;;;;;4.57;1.30;;;23.50;47.90;;;;;;4900465;29;20474;-84
2022/05/13 13:09:47;;;;;;;6.07;1.30;;;23.10;49.60;;;;;;4915829;29;20043;-84
2022/05/13 13:12:37;;;;;;;4.70;1.30;;;23.30;49.50;;;;;;4916015;29;20548;-85
2022/05/13 13:15:22;;;;;;;5.32;1.42;;;23.30;49.20;;;;;;4915356;29;20044;-85
2022/05/13 13:17:57;;;;;;;9.75;1.42;;;22.90;50.00;;;;;;4916099;29;20127;-84
2022/05/13 13:20:26;;;;;;;5.82;1.38;;;22.60;51.00;;;;;;4915462;29;20107;-85
2022/05/13 13:23:00;;;;;;;10.43;1.77;;;22.50;51.80;;;;;;4915818;29;20150;-86
2022/05/13 13:25:34;;;;;;;7.05;1.40;;;22.60;52.00;;;;;;4916306;29;20056;-84